createdAt,value
2022-12-08T00:01:30.785Z,88.56
2022-12-08T00:03:59.383Z,88.82
2022-12-08T00:06:46.708Z,89.00
2022-12-08T00:09:24.960Z,89.36
2022-12-08T00:11:54.369Z,88.24
2022-12-08T00:14:24.525Z,86.31
2022-12-08T00:16:52.476Z,86.70
2022-12-08T00:19:20.584Z,85.40
2022-12-08T00:21:50.037Z,85.60
2022-12-08T00:24:18.212Z,86.32
2022-12-08T00:26:46.528Z,87.60
2022-12-08T00:29:17.538Z,87.52
2022-12-08T00:31:45.861Z,88.27
2022-12-08T00:34:14.414Z,88.66
2022-12-08T00:36:42.624Z,89.27
2022-12-08T00:39:12.213Z,89.55
2022-12-08T00:41:56.798Z,88.20
2022-12-08T00:44:24.920Z,88.77
2022-12-08T00:46:52.877Z,89.22
2022-12-08T00:49:21.253Z,88.74
2022-12-08T00:51:49.244Z,88.90
2022-12-08T00:54:19.311Z,88.92
2022-12-08T00:56:47.301Z,87.75
2022-12-08T00:59:15.202Z,88.09
2022-12-08T01:01:45.209Z,88.67
2022-12-08T01:04:15.517Z,88.36
2022-12-08T01:06:43.483Z,89.31
2022-12-08T01:09:18.253Z,89.72
2022-12-08T01:11:48.862Z,90.05
2022-12-08T01:14:16.720Z,90.13
2022-12-08T01:16:44.932Z,90.29
2022-12-08T01:19:14.025Z,90.19
2022-12-08T01:21:42.381Z,89.26
2022-12-08T01:24:12.138Z,89.54
2022-12-08T01:26:39.987Z,89.73
2022-12-08T01:29:09.333Z,90.08
2022-12-08T01:31:38.420Z,90.45
2022-12-08T01:34:06.826Z,90.46
2022-12-08T01:36:37.116Z,90.52
2022-12-08T01:39:06.780Z,90.51
2022-12-08T01:41:36.375Z,89.77
2022-12-08T01:44:24.462Z,90.09
2022-12-08T01:46:54.819Z,89.56
2022-12-08T01:49:24.171Z,89.58
2022-12-08T01:51:56.122Z,90.17
2022-12-08T01:54:26.055Z,89.68
2022-12-08T01:56:59.834Z,89.62
2022-12-08T01:59:28.563Z,89.94
2022-12-08T02:01:58.117Z,89.86
2022-12-08T02:04:26.272Z,88.05
2022-12-08T02:06:54.771Z,87.36
2022-12-08T02:09:23.003Z,87.63
2022-12-08T02:11:51.650Z,86.44
2022-12-08T02:14:19.755Z,86.27
2022-12-08T02:16:52.376Z,86.98
2022-12-08T02:19:42.669Z,87.82
2022-12-08T02:22:14.088Z,88.85
2022-12-08T02:24:46.797Z,89.61
2022-12-08T02:27:29.524Z,89.50
2022-12-08T02:30:15.252Z,89.50
2022-12-08T02:32:58.006Z,89.81
2022-12-08T02:35:30.978Z,89.97
2022-12-08T02:38:05.923Z,89.92
2022-12-08T02:40:37.483Z,90.58
2022-12-08T02:43:08.904Z,90.54
2022-12-08T02:45:40.284Z,90.98
2022-12-08T02:48:09.798Z,91.19
2022-12-08T02:50:39.164Z,91.12
2022-12-08T02:55:42.999Z,91.02
2022-12-08T02:58:25.426Z,90.92
2022-12-08T03:01:03.256Z,91.09
2022-12-08T03:03:36.785Z,91.39
2022-12-08T03:06:13.945Z,91.34
2022-12-08T03:08:47.231Z,91.35
2022-12-08T03:11:20.460Z,91.29
2022-12-08T03:13:51.460Z,91.44
2022-12-08T03:16:21.953Z,91.65
2022-12-08T03:18:52.285Z,91.83
2022-12-08T03:21:22.907Z,92.08
2022-12-08T03:23:52.275Z,91.99
2022-12-08T03:26:24.717Z,92.27
2022-12-08T03:28:52.627Z,91.76
2022-12-08T03:31:21.012Z,91.67
2022-12-08T03:33:51.148Z,91.84
2022-12-08T03:36:19.727Z,91.87
2022-12-08T03:38:52.416Z,91.75
2022-12-08T03:41:20.668Z,91.83
2022-12-08T03:43:49.147Z,91.73
2022-12-08T03:46:17.118Z,91.98
2022-12-08T03:48:45.209Z,91.99
2022-12-08T03:51:13.170Z,92.01
2022-12-08T03:53:41.233Z,92.04
2022-12-08T03:56:15.773Z,92.02
2022-12-08T03:58:44.247Z,92.16
2022-12-08T04:01:12.247Z,91.80
2022-12-08T04:03:40.207Z,91.94
2022-12-08T04:06:08.608Z,91.89
2022-12-08T04:08:36.528Z,91.91
2022-12-08T04:11:06.295Z,91.41
2022-12-08T04:13:35.627Z,91.45
2022-12-08T04:16:03.982Z,91.71
2022-12-08T04:18:32.288Z,91.71
2022-12-08T04:21:00.117Z,91.80
2022-12-08T04:23:28.164Z,90.96
2022-12-08T04:25:56.099Z,91.22
2022-12-08T04:28:24.048Z,91.66
2022-12-08T04:30:53.272Z,91.71
2022-12-08T04:33:21.290Z,91.91
2022-12-08T04:35:49.165Z,91.72
2022-12-08T04:38:17.530Z,91.73
2022-12-08T04:40:45.819Z,91.53
2022-12-08T04:43:13.716Z,91.68
2022-12-08T04:45:41.844Z,91.62
2022-12-08T04:48:12.665Z,91.37
2022-12-08T04:50:41.613Z,90.73
2022-12-08T04:53:10.165Z,90.84
2022-12-08T04:55:39.434Z,91.53
2022-12-08T04:58:07.276Z,91.88
2022-12-08T05:00:35.171Z,92.07
2022-12-08T05:03:03.108Z,91.90
2022-12-08T05:05:32.418Z,92.06
2022-12-08T05:08:00.393Z,91.92
2022-12-08T05:10:28.872Z,90.88
2022-12-08T05:12:56.726Z,91.30
2022-12-08T05:15:24.608Z,91.47
2022-12-08T05:17:52.504Z,91.76
2022-12-08T05:20:20.546Z,91.65
2022-12-08T05:22:49.770Z,91.81
2022-12-08T05:25:17.671Z,91.89
2022-12-08T05:27:45.618Z,91.89
2022-12-08T05:30:13.645Z,91.95
2022-12-08T05:32:41.678Z,91.86
2022-12-08T05:35:10.001Z,91.82
2022-12-08T05:37:38.012Z,89.74
2022-12-08T05:40:08.268Z,90.57
2022-12-08T05:42:36.209Z,91.05
2022-12-08T05:45:04.497Z,91.49
2022-12-08T05:47:36.123Z,92.31
2022-12-08T05:50:05.126Z,91.94
2022-12-08T05:52:33.443Z,92.08
2022-12-08T05:55:01.502Z,92.08
2022-12-08T05:57:30.827Z,91.97
2022-12-08T05:59:59.988Z,91.67
2022-12-08T06:02:28.599Z,90.05
2022-12-08T06:04:56.520Z,89.92
2022-12-08T06:07:24.369Z,89.64
2022-12-08T06:09:52.233Z,89.32
2022-12-08T06:12:21.347Z,90.55
2022-12-08T06:14:50.593Z,91.33
2022-12-08T06:17:18.480Z,91.75
2022-12-08T06:19:46.299Z,91.83
2022-12-08T06:22:14.413Z,92.18
2022-12-08T06:24:42.374Z,91.65
2022-12-08T06:27:10.269Z,90.53
2022-12-08T06:29:38.129Z,90.26
2022-12-08T06:32:07.752Z,90.82
2022-12-08T06:34:35.673Z,91.19
2022-12-08T06:37:03.490Z,91.87
2022-12-08T06:39:31.404Z,92.21
2022-12-08T06:42:16.941Z,91.48
2022-12-08T06:44:44.851Z,91.67
2022-12-08T06:47:14.346Z,91.67
2022-12-08T06:49:42.245Z,91.67
2022-12-08T06:52:10.136Z,92.35
2022-12-08T06:54:38.046Z,92.65
2022-12-08T06:57:05.868Z,92.72
2022-12-08T06:59:33.912Z,92.60
2022-12-08T07:02:01.886Z,92.71
2022-12-08T07:04:31.188Z,93.18
2022-12-08T07:06:59.105Z,92.52
2022-12-08T07:09:26.949Z,91.98
2022-12-08T07:11:54.865Z,92.44
2022-12-08T07:14:24.938Z,92.69
2022-12-08T07:16:53.321Z,92.83
2022-12-08T07:19:21.425Z,91.29
2022-12-08T07:21:50.742Z,91.02
2022-12-08T07:24:18.763Z,91.71
2022-12-08T07:26:46.595Z,92.28
2022-12-08T07:29:14.638Z,91.92
2022-12-08T07:31:42.462Z,89.85
2022-12-08T07:34:12.388Z,89.16
2022-12-08T07:36:41.469Z,90.53
2022-12-08T07:39:10.868Z,91.24
2022-12-08T07:41:38.767Z,91.50
2022-12-08T07:44:06.606Z,91.48
2022-12-08T07:46:34.620Z,91.46
2022-12-08T07:49:02.605Z,91.18
2022-12-08T07:51:30.486Z,90.21
2022-12-08T07:53:58.445Z,90.13
2022-12-08T07:56:27.760Z,90.42
2022-12-08T07:58:55.623Z,90.77
2022-12-08T08:01:25.991Z,90.75
2022-12-08T08:03:54.988Z,89.97
2022-12-08T08:06:22.988Z,89.18
2022-12-08T08:08:50.889Z,89.88
2022-12-08T08:11:21.159Z,89.14
2022-12-08T08:13:51.198Z,88.79
2022-12-08T08:16:19.485Z,89.27
2022-12-08T08:18:47.887Z,90.27
2022-12-08T08:21:43.846Z,90.09
2022-12-08T08:24:03.960Z,90.04
2022-12-08T08:26:31.840Z,89.91
2022-12-08T08:29:01.197Z,88.08
2022-12-08T08:31:29.211Z,89.08
2022-12-08T08:33:57.510Z,89.42
2022-12-08T08:36:25.534Z,89.29
2022-12-08T08:38:53.514Z,88.36
2022-12-08T08:41:21.451Z,87.81
2022-12-08T08:43:49.323Z,88.07
2022-12-08T08:46:18.686Z,88.20
2022-12-08T08:48:46.789Z,88.04
2022-12-08T08:51:15.530Z,87.78
2022-12-08T08:53:43.820Z,87.78
2022-12-08T08:56:12.128Z,88.15
2022-12-08T08:58:40.157Z,88.45
2022-12-08T09:01:08.063Z,87.87
2022-12-08T09:03:37.254Z,88.46
2022-12-08T09:06:05.640Z,88.30
2022-12-08T09:08:33.725Z,87.83
2022-12-08T09:11:01.678Z,87.86
2022-12-08T09:13:29.484Z,87.50
2022-12-08T09:15:57.522Z,87.29
2022-12-08T09:18:25.508Z,87.23
2022-12-08T09:20:55.229Z,83.26
2022-12-08T09:23:23.234Z,85.80
2022-12-08T09:25:51.062Z,86.65
2022-12-08T09:28:18.946Z,87.13
2022-12-08T09:30:47.280Z,86.83
2022-12-08T09:33:15.528Z,86.28
2022-12-08T09:35:43.336Z,85.88
2022-12-08T09:38:12.590Z,85.82
2022-12-08T09:40:44.161Z,85.19
2022-12-08T09:43:20.970Z,84.55
2022-12-08T09:45:51.134Z,84.73
2022-12-08T09:48:20.478Z,83.19
2022-12-08T09:50:52.608Z,84.04
2022-12-08T09:53:24.970Z,84.82
2022-12-08T09:55:55.063Z,84.66
2022-12-08T09:58:26.548Z,84.32
2022-12-08T10:00:54.671Z,82.65
2022-12-08T10:03:23.961Z,83.52
2022-12-08T10:05:57.113Z,83.08
2022-12-08T10:08:30.391Z,84.08
2022-12-08T10:10:59.574Z,84.13
2022-12-08T10:13:34.571Z,83.83
2022-12-08T10:16:11.089Z,84.22
2022-12-08T10:18:41.325Z,84.33
2022-12-08T10:21:14.707Z,83.62
2022-12-08T10:23:45.784Z,84.01
2022-12-08T10:26:14.652Z,83.86
2022-12-08T10:28:45.490Z,83.41
2022-12-08T10:31:18.508Z,81.85
2022-12-08T10:33:48.195Z,83.38
2022-12-08T10:36:16.416Z,83.10
2022-12-08T10:38:45.936Z,83.47
2022-12-08T10:41:14.640Z,81.77
2022-12-08T10:43:44.161Z,82.52
2022-12-08T10:46:13.944Z,83.53
2022-12-08T10:48:51.976Z,82.37
2022-12-08T10:51:23.756Z,81.62
2022-12-08T10:53:53.062Z,80.93
2022-12-08T10:56:25.291Z,82.03
2022-12-08T10:59:05.497Z,82.41
2022-12-08T11:01:35.884Z,80.84
2022-12-08T11:04:05.432Z,80.93
2022-12-08T11:06:35.315Z,80.37
2022-12-08T11:09:05.939Z,79.57
2022-12-08T11:11:40.927Z,79.17
2022-12-08T11:14:09.457Z,79.59
2022-12-08T11:16:37.580Z,79.49
2022-12-08T11:19:06.899Z,78.91
2022-12-08T11:21:37.268Z,79.39
2022-12-08T11:24:20.273Z,79.35
2022-12-08T11:26:50.571Z,77.84
2022-12-08T11:29:18.711Z,77.29
2022-12-08T11:31:50.014Z,76.13
2022-12-08T11:34:21.245Z,77.21
2022-12-08T11:36:50.074Z,77.08
2022-12-08T11:39:19.851Z,77.41
2022-12-08T11:41:48.675Z,76.81
2022-12-08T11:44:23.237Z,76.67
2022-12-08T11:46:56.601Z,75.85
2022-12-08T11:49:27.577Z,75.00
2022-12-08T11:52:02.981Z,76.67
2022-12-08T11:54:35.328Z,76.29
2022-12-08T11:57:04.913Z,76.66
2022-12-08T11:59:33.782Z,77.70
2022-12-08T12:02:02.711Z,77.66
2022-12-08T12:04:32.703Z,77.79
2022-12-08T12:07:16.218Z,78.79
2022-12-08T12:09:52.798Z,78.23
2022-12-08T12:12:25.927Z,77.34
2022-12-08T12:15:08.684Z,76.74
2022-12-08T12:17:41.588Z,77.01
2022-12-08T12:20:14.732Z,75.09
2022-12-08T12:22:43.583Z,76.67
2022-12-08T12:25:19.436Z,76.75
2022-12-08T12:27:49.383Z,77.07
2022-12-08T12:30:21.094Z,77.26
2022-12-08T12:32:52.734Z,76.20
2022-12-08T12:35:27.109Z,77.24
2022-12-08T12:37:58.530Z,76.59
2022-12-08T12:40:29.122Z,76.47
2022-12-08T12:43:25.314Z,75.39
2022-12-08T12:46:13.524Z,75.96
2022-12-08T12:48:41.607Z,76.46
2022-12-08T12:51:24.333Z,77.43
2022-12-08T12:53:52.473Z,76.88
2022-12-08T12:56:38.931Z,76.85
2022-12-08T12:59:21.857Z,76.83
2022-12-08T13:01:54.749Z,75.19
2022-12-08T13:04:30.198Z,75.80
2022-12-08T13:06:58.361Z,76.30
2022-12-08T13:09:31.483Z,76.83
2022-12-08T13:12:00.935Z,76.99
2022-12-08T13:14:32.806Z,76.67
2022-12-08T13:17:03.512Z,75.85
2022-12-08T13:19:32.506Z,74.89
2022-12-08T13:22:00.805Z,74.85
2022-12-08T13:24:34.151Z,74.65
2022-12-08T13:27:20.924Z,75.73
2022-12-08T13:30:08.787Z,74.83
2022-12-08T13:35:48.614Z,75.68
2022-12-08T13:38:18.402Z,74.29
2022-12-08T13:40:47.172Z,74.22
2022-12-08T13:43:18.237Z,73.70
2022-12-08T13:46:52.235Z,74.29
2022-12-08T13:50:05.824Z,71.84
2022-12-08T13:55:16.034Z,74.39
2022-12-08T13:57:22.309Z,73.70
2022-12-08T13:59:50.196Z,74.11
2022-12-08T14:02:21.656Z,73.13
2022-12-08T14:07:39.953Z,73.94
2022-12-08T14:10:09.780Z,74.42
2022-12-08T14:12:38.427Z,75.67
2022-12-08T14:15:07.707Z,75.33
2022-12-08T14:17:35.677Z,76.96
2022-12-08T14:20:06.759Z,77.46
2022-12-08T14:22:35.455Z,78.45
2022-12-08T14:25:03.744Z,78.24
2022-12-08T14:27:34.698Z,78.04
2022-12-08T14:30:03.426Z,77.99
2022-12-08T14:32:32.727Z,77.07
2022-12-08T14:35:02.534Z,76.53
2022-12-08T14:37:35.971Z,76.98
2022-12-08T14:40:05.506Z,77.35
2022-12-08T14:42:43.696Z,77.69
2022-12-08T14:45:13.581Z,78.38
2022-12-08T14:47:41.621Z,79.15
2022-12-08T14:50:24.261Z,79.72
2022-12-08T14:52:54.100Z,79.57
2022-12-08T14:55:21.895Z,77.84
2022-12-08T14:57:50.162Z,79.44
2022-12-08T15:00:20.878Z,79.74
2022-12-08T15:02:49.217Z,80.85
2022-12-08T15:05:18.919Z,81.44
2022-12-08T15:07:48.741Z,80.51
2022-12-08T15:10:23.063Z,79.82
2022-12-08T15:13:16.370Z,81.25
2022-12-08T15:15:48.381Z,80.55
2022-12-08T15:18:17.770Z,78.94
2022-12-08T15:20:46.647Z,77.53
2022-12-08T15:23:26.668Z,77.36
2022-12-08T15:25:56.116Z,77.14
2022-12-08T15:28:29.412Z,76.94
2022-12-08T15:30:57.973Z,79.06
2022-12-08T15:33:26.231Z,81.27
2022-12-08T15:35:54.830Z,81.83
2022-12-08T15:38:24.752Z,81.96
2022-12-08T15:40:52.693Z,80.12
2022-12-08T15:43:22.038Z,78.53
2022-12-08T15:45:58.411Z,78.59
2022-12-08T15:48:28.712Z,78.90
2022-12-08T15:50:57.132Z,79.63
2022-12-08T15:53:24.957Z,80.33
2022-12-08T15:56:25.728Z,79.91
2022-12-08T15:58:58.681Z,82.62
2022-12-08T16:01:27.015Z,83.02
2022-12-08T16:09:33.644Z,83.31
2022-12-08T16:12:19.505Z,83.16
2022-12-08T16:17:37.457Z,82.47
2022-12-08T16:20:06.405Z,81.97
2022-12-08T16:25:23.555Z,83.31
2022-12-08T16:28:05.321Z,82.11
2022-12-08T16:30:38.033Z,81.46
2022-12-08T16:33:06.221Z,81.61
2022-12-08T16:35:34.148Z,81.85
2022-12-08T16:38:02.117Z,83.02
2022-12-08T16:40:30.052Z,83.50
2022-12-08T16:42:57.193Z,84.24
2022-12-08T16:45:26.987Z,85.27
2022-12-08T16:47:57.182Z,86.14
2022-12-08T16:50:26.773Z,87.08
2022-12-08T16:52:57.279Z,87.40
2022-12-08T16:55:25.159Z,87.82
2022-12-08T16:57:53.436Z,88.06
2022-12-08T17:00:22.672Z,88.33
2022-12-08T17:02:51.116Z,88.34
2022-12-08T17:05:21.454Z,88.89
2022-12-08T17:07:50.189Z,89.21
2022-12-08T17:10:23.083Z,89.57
2022-12-08T17:12:51.021Z,89.78
2022-12-08T17:15:20.004Z,89.87
2022-12-08T17:17:47.899Z,90.03
2022-12-08T17:20:16.898Z,90.18
2022-12-08T17:22:46.736Z,90.18
2022-12-08T17:25:14.670Z,90.83
2022-12-08T17:27:42.676Z,91.33
2022-12-08T17:30:15.607Z,91.33
2022-12-08T17:32:43.537Z,91.43
2022-12-08T17:35:11.417Z,91.49
2022-12-08T17:37:39.245Z,91.28
2022-12-08T17:40:09.441Z,91.56
2022-12-08T17:42:38.611Z,91.46
2022-12-08T17:45:07.895Z,91.37
2022-12-08T17:47:36.199Z,91.25
2022-12-08T17:50:04.407Z,91.68
2022-12-08T17:52:32.715Z,91.63
2022-12-08T17:55:00.456Z,91.58
2022-12-08T17:57:29.642Z,91.72
2022-12-08T17:59:57.400Z,91.90
2022-12-08T18:02:25.342Z,91.79
2022-12-08T18:04:53.236Z,91.85
2022-12-08T18:07:21.302Z,91.72
2022-12-08T18:09:49.189Z,91.60
2022-12-08T18:12:22.270Z,91.31
2022-12-08T18:14:52.770Z,91.61
2022-12-08T18:17:22.075Z,91.46
2022-12-08T18:19:50.354Z,91.65
2022-12-08T18:22:18.222Z,91.74
2022-12-08T18:24:47.657Z,91.78
2022-12-08T18:27:16.053Z,91.68
2022-12-08T18:29:43.930Z,91.70
2022-12-08T18:32:13.075Z,91.59
2022-12-08T18:34:41.072Z,91.72
2022-12-08T18:37:09.030Z,91.89
2022-12-08T18:39:37.519Z,92.04
2022-12-08T18:42:22.854Z,92.07
2022-12-08T18:44:51.295Z,92.39
2022-12-08T18:47:20.766Z,92.33
2022-12-08T18:49:48.788Z,92.32
2022-12-08T18:52:20.414Z,92.42
2022-12-08T18:55:09.069Z,92.35
2022-12-08T18:57:42.469Z,92.46
2022-12-08T19:00:11.176Z,92.71
2022-12-08T19:02:40.684Z,92.79
2022-12-08T19:05:09.240Z,92.66
2022-12-08T19:07:38.555Z,92.75
2022-12-08T19:10:07.562Z,92.87
2022-12-08T19:12:35.800Z,93.03
2022-12-08T19:15:04.218Z,93.07
2022-12-08T19:17:33.791Z,93.17
2022-12-08T19:20:03.422Z,93.27
2022-12-08T19:22:31.428Z,93.18
2022-12-08T19:24:59.253Z,93.18
2022-12-08T19:27:28.098Z,93.16
2022-12-08T19:29:56.207Z,93.27
2022-12-08T19:32:24.780Z,93.21
2022-12-08T19:34:52.617Z,93.41
2022-12-08T19:37:21.849Z,93.19
2022-12-08T19:40:07.720Z,93.57
2022-12-08T19:42:53.349Z,93.53
2022-12-08T19:45:22.577Z,93.41
2022-12-08T19:47:50.874Z,93.35
2022-12-08T19:50:38.229Z,93.44
2022-12-08T19:53:08.288Z,93.44
2022-12-08T19:55:36.624Z,93.29
2022-12-08T19:58:04.843Z,93.32
2022-12-08T20:00:33.648Z,93.30
2022-12-08T20:03:02.158Z,93.27
2022-12-08T20:05:30.974Z,93.00
2022-12-08T20:07:58.914Z,93.25
2022-12-08T20:10:29.553Z,93.21
2022-12-08T20:13:18.008Z,93.53
2022-12-08T20:15:46.415Z,93.29
2022-12-08T20:18:15.100Z,93.37
2022-12-08T20:20:43.699Z,93.40
2022-12-08T20:23:12.010Z,93.40
2022-12-08T20:25:42.039Z,93.28
2022-12-08T20:28:10.065Z,93.22
2022-12-08T20:30:39.190Z,93.24
2022-12-08T20:33:07.036Z,93.00
2022-12-08T20:35:34.806Z,93.16
2022-12-08T20:38:02.852Z,93.27
2022-12-08T20:40:30.786Z,93.42
2022-12-08T20:43:00.119Z,93.50
2022-12-08T20:45:28.012Z,93.79
2022-12-08T20:47:56.287Z,93.38
2022-12-08T20:50:24.235Z,93.44
2022-12-08T20:52:52.331Z,93.18
2022-12-08T20:55:20.343Z,93.19
2022-12-08T20:57:48.287Z,93.32
2022-12-08T21:00:17.747Z,93.29
2022-12-08T21:02:50.917Z,93.54
2022-12-08T21:05:23.532Z,93.51
2022-12-08T21:07:51.482Z,93.70
2022-12-08T21:10:19.477Z,93.50
2022-12-08T21:12:47.330Z,93.60
2022-12-08T21:15:15.225Z,93.54
2022-12-08T21:17:44.585Z,93.50
2022-12-08T21:20:13.009Z,93.66
2022-12-08T21:22:42.313Z,93.64
2022-12-08T21:25:10.518Z,93.77
2022-12-08T21:27:39.034Z,93.67
2022-12-08T21:30:08.164Z,93.80
2022-12-08T21:32:36.380Z,93.64
2022-12-08T21:35:05.989Z,93.68
2022-12-08T21:37:34.056Z,93.44
2022-12-08T21:40:02.098Z,93.22
2022-12-08T21:42:46.859Z,93.17
2022-12-08T21:45:15.878Z,93.36
2022-12-08T21:47:44.155Z,93.49
2022-12-08T21:50:14.319Z,93.62
2022-12-08T21:52:43.028Z,93.77
2022-12-08T21:55:12.540Z,93.84
2022-12-08T21:57:41.067Z,93.75
2022-12-08T22:00:10.940Z,93.45
2022-12-08T22:02:39.509Z,93.38
2022-12-08T22:05:07.910Z,93.24
2022-12-08T22:07:39.937Z,93.38
2022-12-08T22:10:09.157Z,93.54
2022-12-08T22:12:38.249Z,93.61
2022-12-08T22:15:06.888Z,93.52
2022-12-08T22:17:37.286Z,92.85
2022-12-08T22:20:06.544Z,92.86
2022-12-08T22:22:35.819Z,92.49
2022-12-08T22:25:06.158Z,92.29
2022-12-08T22:27:34.688Z,92.47
2022-12-08T22:30:02.916Z,92.27
2022-12-08T22:32:31.023Z,92.52
2022-12-08T22:34:59.021Z,92.15
2022-12-08T22:37:27.433Z,92.06
2022-12-08T22:39:55.408Z,92.04
2022-12-08T22:42:25.197Z,91.68
2022-12-08T22:44:53.213Z,91.77
2022-12-08T22:47:21.624Z,91.90
2022-12-08T22:49:49.570Z,91.82
2022-12-08T22:52:17.677Z,91.96
2022-12-08T22:54:45.875Z,92.23
2022-12-08T22:57:13.695Z,92.08
2022-12-08T22:59:43.320Z,92.32
2022-12-08T23:02:11.461Z,92.38
2022-12-08T23:04:39.620Z,92.44
2022-12-08T23:07:07.513Z,92.34
2022-12-08T23:09:35.434Z,92.29
2022-12-08T23:12:03.349Z,92.25
2022-12-08T23:14:31.361Z,92.10
2022-12-08T23:17:00.893Z,92.34
2022-12-08T23:19:28.845Z,92.36
2022-12-08T23:21:56.580Z,92.37
2022-12-08T23:24:24.557Z,92.29
2022-12-08T23:26:52.722Z,92.23
2022-12-08T23:29:20.669Z,92.02
2022-12-08T23:31:48.801Z,91.89
2022-12-08T23:34:18.382Z,91.85
2022-12-08T23:36:46.325Z,91.96
2022-12-08T23:39:14.105Z,91.71
2022-12-08T23:41:41.966Z,91.87
2022-12-08T23:44:12.018Z,91.67
2022-12-08T23:46:40.406Z,91.62
2022-12-08T23:49:08.410Z,91.64
2022-12-08T23:51:37.558Z,91.50
2022-12-08T23:54:06.588Z,91.55
2022-12-08T23:56:34.518Z,91.66
2022-12-08T23:59:02.419Z,91.82
